Amr R — XUAX5 — position and weather

sailwx.info

Track history (hours):
 
Tides and Currents Weather Stations Pressure Air Temp Water Temp Dewpoint Dewpoint Depression Visibility Wind Speed Wind Dir Waves Ship Positions

Amr R

Last reported at 2015-Sep-02 18:32 UTC. Time now 2015-Sep-02 18:59 UTC.
Position N 44°35' E 037°56'.

Length 130 m.

Type: Cargo ship. MMSI: 514427000.

Date/timePositionNaut miles runAvg speedWind from/ knotsBaromVisibWave heightAir tempDewpointWater temp
2015-Sep-02 18:32N 44°35' E 037°56'0 0.1
2015-Sep-02 17:29N 44°35' E 037°56'0 0.0
2015-Sep-02 16:32N 44°35' E 037°56'0 0.0
2015-Sep-02 15:32N 44°35' E 037°56'0 0.0
2015-Sep-02 14:32N 44°35' E 037°56'0 0.0
2015-Sep-02 13:32N 44°35' E 037°56'0 0.0
2015-Sep-02 12:32N 44°35' E 037°56'0 0.0
2015-Sep-02 11:32N 44°35' E 037°56'0 0.0
2015-Sep-02 10:32N 44°35' E 037°56'0 0.0
2015-Sep-02 09:32N 44°35' E 037°56'0 0.0
2015-Sep-02 03:29N 44°35' E 037°56'0 0.0
2015-Sep-02 02:32N 44°35' E 037°56'0 0.0
2015-Sep-02 01:32N 44°35' E 037°56'0 0.0
2015-Sep-02 00:29N 44°35' E 037°56'0 0.0
2015-Sep-01 23:32N 44°35' E 037°56'0 0.0
2015-Sep-01 22:32N 44°35' E 037°56'0 0.0
2015-Sep-01 21:32N 44°35' E 037°56'0 0.1
2015-Sep-01 20:32N 44°35' E 037°56'0 0.1
2015-Sep-01 19:32N 44°35' E 037°56'0 0.0
2015-Sep-01 18:32N 44°35' E 037°56'4 3.8
2015-Sep-01 17:33N 44°36' E 037°51'7 7.4
2015-Sep-01 16:33N 44°43' E 037°48'1 1.0
2015-Sep-01 15:31N 44°44' E 037°48'0 0.0
2015-Sep-01 14:31N 44°44' E 037°48'0 0.0
2015-Sep-01 13:31N 44°44' E 037°48'0 0.0
2015-Sep-01 12:31N 44°44' E 037°48'0 0.0
2015-Sep-01 11:31N 44°44' E 037°48'0 0.0
2015-Sep-01 10:31N 44°44' E 037°48'0 0.0
2015-Sep-01 09:31N 44°44' E 037°48'0 0.0
2015-Sep-01 08:31N 44°44' E 037°48'0 0.0
2015-Sep-01 07:31N 44°44' E 037°48'0 0.0
2015-Sep-01 06:31N 44°44' E 037°48'0 0.0
2015-Sep-01 05:25N 44°44' E 037°48'0 0.0
2015-Aug-31 03:31N 44°44' E 037°48'0 0.0
2015-Aug-31 02:31N 44°44' E 037°48'0 0.0
2015-Aug-31 01:31N 44°44' E 037°48'0 0.0
2015-Aug-31 00:31N 44°44' E 037°48'0 0.0
2015-Aug-30 23:31N 44°44' E 037°48'0 0.0
2015-Aug-30 22:31N 44°44' E 037°48'0 0.0
2015-Aug-30 21:31N 44°44' E 037°48'0 0.0
2015-Aug-30 20:31N 44°44' E 037°48'0 0.0
2015-Aug-30 19:31N 44°44' E 037°48'10 2.0
2015-Aug-30 14:14N 44°35' E 037°56'0 0.0
2015-Aug-30 13:32N 44°35' E 037°56'0 0.0
2015-Aug-30 12:32N 44°35' E 037°56'0 0.0
2015-Aug-30 11:29N 44°35' E 037°56'0 0.0
2015-Aug-30 10:32N 44°35' E 037°56'0 0.0
2015-Aug-30 09:32N 44°35' E 037°56'0 0.0
2015-Aug-30 08:32N 44°35' E 037°56'0 0.0
2015-Aug-30 07:32N 44°35' E 037°56'0 0.0
2015-Aug-30 06:29N 44°35' E 037°56'0 0.0
2015-Aug-30 05:32N 44°35' E 037°56'0 0.0
2015-Aug-30 04:32N 44°35' E 037°56'0 0.0
2015-Aug-30 03:32N 44°35' E 037°56'0 0.0
2015-Aug-30 02:32N 44°35' E 037°56'0 0.0
2015-Aug-30 01:32N 44°35' E 037°56'0 0.0
2015-Aug-30 00:32N 44°35' E 037°56'0 0.0
2015-Aug-29 23:32N 44°35' E 037°56'0 0.0
2015-Aug-29 22:32N 44°35' E 037°56'0 0.0
2015-Aug-29 21:32N 44°35' E 037°56'0 0.0
2015-Aug-29 20:32N 44°35' E 037°56'0 0.0
2015-Aug-29 19:32N 44°35' E 037°56'0 0.0
2015-Aug-29 18:32N 44°35' E 037°56'0 0.0
2015-Aug-29 17:32N 44°35' E 037°56'0 0.0
2015-Aug-29 16:32N 44°35' E 037°56'0 0.0
2015-Aug-29 15:32N 44°35' E 037°56'0 0.0
2015-Aug-29 14:32N 44°35' E 037°56'0 0.0
2015-Aug-29 13:32N 44°35' E 037°56'0 0.0
2015-Aug-29 12:32N 44°35' E 037°56'0 0.0
2015-Aug-29 11:32N 44°35' E 037°56'0 0.0
2015-Aug-29 10:32N 44°35' E 037°56'0 0.1
2015-Aug-29 09:32N 44°35' E 037°56'0 0.1
2015-Aug-29 08:32N 44°35' E 037°56'0 0.0
2015-Aug-29 07:32N 44°35' E 037°56'0 0.0
2015-Aug-29 06:32N 44°35' E 037°56'0 0.0
2015-Aug-29 05:32N 44°35' E 037°56'0 0.0
2015-Aug-29 04:32N 44°35' E 037°56'0 0.0
2015-Aug-29 03:32N 44°35' E 037°56'0 0.0
2015-Aug-29 02:32N 44°35' E 037°56'0 0.0
2015-Aug-29 01:32N 44°35' E 037°56'0 0.0
2015-Aug-29 00:32N 44°35' E 037°56'0 0.0
2015-Aug-28 23:32N 44°35' E 037°56'0 0.0
2015-Aug-28 22:32N 44°35' E 037°56'0 0.0
2015-Aug-28 21:32N 44°35' E 037°56'0 0.0
2015-Aug-28 20:32N 44°35' E 037°56'0 0.0
2015-Aug-28 19:32N 44°35' E 037°56'0 0.0
2015-Aug-28 18:32N 44°35' E 037°56'0 0.0
2015-Aug-28 17:32N 44°35' E 037°56'0 0.0
2015-Aug-28 16:32N 44°35' E 037°56'0 0.0
2015-Aug-28 15:32N 44°35' E 037°56'0 0.0
2015-Aug-28 14:32N 44°35' E 037°56'0 0.1
2015-Aug-28 13:32N 44°35' E 037°56'0 0.0
2015-Aug-28 12:32N 44°35' E 037°56'0 0.1
2015-Aug-28 11:32N 44°35' E 037°56'0 0.0
2015-Aug-28 10:32N 44°35' E 037°56'0 0.0
2015-Aug-28 09:32N 44°35' E 037°56'0 0.0
2015-Aug-28 08:32N 44°35' E 037°56'0 0.0
2015-Aug-28 07:32N 44°35' E 037°56'0 0.0
2015-Aug-28 06:32N 44°35' E 037°56'0 0.0
2015-Aug-26 20:17N 44°35' E 037°56'0 0.0
2015-Aug-26 19:32N 44°35' E 037°56'0 0.0
2015-Aug-26 18:32N 44°35' E 037°56'0 0.0
2015-Aug-26 17:32N 44°35' E 037°56'0 0.0
2015-Aug-26 16:32N 44°35' E 037°56'0 0.0
2015-Aug-26 15:32N 44°35' E 037°56'0 0.0
2015-Aug-26 14:32N 44°35' E 037°56'0 0.0
2015-Aug-26 13:32N 44°35' E 037°56'0 0.0
2015-Aug-26 12:33N 44°35' E 037°56'5 5.1
2015-Aug-26 11:33N 44°33' E 037°50'8 7.9
2015-Aug-26 10:33N 44°30' E 037°40'7 6.9
2015-Aug-26 09:33N 44°28' E 037°30'7 6.8
2015-Aug-26 08:32N 44°25' E 037°21'7 6.4
2015-Aug-26 07:29N 44°25' E 037°12'17 1.5
2015-Aug-25 20:17N 44°28' E 037°35'3 3.9
2015-Aug-25 19:33N 44°28' E 037°39'3 3.3
2015-Aug-25 18:33N 44°28' E 037°44'4 4.4
2015-Aug-25 17:33N 44°32' E 037°47'4 3.9
2015-Aug-25 16:33N 44°34' E 037°43'7 7.2
2015-Aug-25 15:33N 44°32' E 037°33'3 3.4
2015-Aug-25 14:33N 44°30' E 037°29'4 3.9
2015-Aug-25 13:33N 44°30' E 037°35'3 3.2
2015-Aug-25 12:33N 44°30' E 037°39'2 2.1
2015-Aug-25 11:33N 44°30' E 037°42'6 6.3
2015-Aug-25 10:33N 44°27' E 037°34'6 5.7
2015-Aug-25 09:33N 44°24' E 037°27'7 6.8
2015-Aug-25 08:33N 44°23' E 037°18'9 0.8
2015-Aug-24 21:27N 44°27' E 037°29'2 2.4
2015-Aug-24 20:33N 44°28' E 037°32'2 2.1
2015-Aug-24 19:25N 44°28' E 037°35'2 1.8
2015-Aug-24 18:32N 44°29' E 037°33'10 4.5
2015-Aug-24 16:19N 44°30' E 037°18'1 0.7
2015-Aug-24 15:33N 44°29' E 037°19'1 1.5
2015-Aug-24 14:33N 44°28' E 037°21'2 2.3
2015-Aug-24 13:33N 44°27' E 037°24'2 2.4
2015-Aug-24 12:33N 44°27' E 037°27'3 2.6
2015-Aug-24 11:33N 44°27' E 037°31'3 3.1
2015-Aug-24 10:33N 44°27' E 037°35'3 3.0
2015-Aug-24 09:33N 44°27' E 037°39'3 2.8
2015-Aug-24 08:33N 44°28' E 037°43'0 0.1
2015-Aug-24 07:33N 44°28' E 037°43'9 8.5
2015-Aug-24 06:33N 44°23' E 037°33'10 9.0
2015-Aug-24 05:26N 44°17' E 037°22'  
Track history (hours):
 
Tides and Currents Weather Stations Pressure Air Temp Water Temp Dewpoint Dewpoint Depression Visibility Wind Speed Wind Dir Waves Ship Positions

Amr R

Last reported at 2015-Sep-02 18:32 UTC. Time now 2015-Sep-02 18:59 UTC.
Position N 44°35' E 037°56'.

Length 130 m.

Type: Cargo ship. MMSI: 514427000.

Date/timePositionNaut miles runAvg speedWind from/ knotsBaromVisibWave heightAir tempDewpointWater temp
2015-Sep-02 18:32N 44°35' E 037°56'0 0.1
2015-Sep-02 17:29N 44°35' E 037°56'0 0.0
2015-Sep-02 16:32N 44°35' E 037°56'0 0.0
2015-Sep-02 15:32N 44°35' E 037°56'0 0.0
2015-Sep-02 14:32N 44°35' E 037°56'0 0.0
2015-Sep-02 13:32N 44°35' E 037°56'0 0.0
2015-Sep-02 12:32N 44°35' E 037°56'0 0.0
2015-Sep-02 11:32N 44°35' E 037°56'0 0.0
2015-Sep-02 10:32N 44°35' E 037°56'0 0.0
2015-Sep-02 09:32N 44°35' E 037°56'0 0.0
2015-Sep-02 03:29N 44°35' E 037°56'0 0.0
2015-Sep-02 02:32N 44°35' E 037°56'0 0.0
2015-Sep-02 01:32N 44°35' E 037°56'0 0.0
2015-Sep-02 00:29N 44°35' E 037°56'0 0.0
2015-Sep-01 23:32N 44°35' E 037°56'0 0.0
2015-Sep-01 22:32N 44°35' E 037°56'0 0.0
2015-Sep-01 21:32N 44°35' E 037°56'0 0.1
2015-Sep-01 20:32N 44°35' E 037°56'0 0.1
2015-Sep-01 19:32N 44°35' E 037°56'0 0.0
2015-Sep-01 18:32N 44°35' E 037°56'4 3.8
2015-Sep-01 17:33N 44°36' E 037°51'7 7.4
2015-Sep-01 16:33N 44°43' E 037°48'1 1.0
2015-Sep-01 15:31N 44°44' E 037°48'0 0.0
2015-Sep-01 14:31N 44°44' E 037°48'0 0.0
2015-Sep-01 13:31N 44°44' E 037°48'0 0.0
2015-Sep-01 12:31N 44°44' E 037°48'0 0.0
2015-Sep-01 11:31N 44°44' E 037°48'0 0.0
2015-Sep-01 10:31N 44°44' E 037°48'0 0.0
2015-Sep-01 09:31N 44°44' E 037°48'0 0.0
2015-Sep-01 08:31N 44°44' E 037°48'0 0.0
2015-Sep-01 07:31N 44°44' E 037°48'0 0.0
2015-Sep-01 06:31N 44°44' E 037°48'0 0.0
2015-Sep-01 05:25N 44°44' E 037°48'0 0.0
2015-Aug-31 03:31N 44°44' E 037°48'0 0.0
2015-Aug-31 02:31N 44°44' E 037°48'0 0.0
2015-Aug-31 01:31N 44°44' E 037°48'0 0.0
2015-Aug-31 00:31N 44°44' E 037°48'0 0.0
2015-Aug-30 23:31N 44°44' E 037°48'0 0.0
2015-Aug-30 22:31N 44°44' E 037°48'0 0.0
2015-Aug-30 21:31N 44°44' E 037°48'0 0.0
2015-Aug-30 20:31N 44°44' E 037°48'0 0.0
2015-Aug-30 19:31N 44°44' E 037°48'10 2.0
2015-Aug-30 14:14N 44°35' E 037°56'0 0.0
2015-Aug-30 13:32N 44°35' E 037°56'0 0.0
2015-Aug-30 12:32N 44°35' E 037°56'0 0.0
2015-Aug-30 11:29N 44°35' E 037°56'0 0.0
2015-Aug-30 10:32N 44°35' E 037°56'0 0.0
2015-Aug-30 09:32N 44°35' E 037°56'0 0.0
2015-Aug-30 08:32N 44°35' E 037°56'0 0.0
2015-Aug-30 07:32N 44°35' E 037°56'0 0.0
2015-Aug-30 06:29N 44°35' E 037°56'0 0.0
2015-Aug-30 05:32N 44°35' E 037°56'0 0.0
2015-Aug-30 04:32N 44°35' E 037°56'0 0.0
2015-Aug-30 03:32N 44°35' E 037°56'0 0.0
2015-Aug-30 02:32N 44°35' E 037°56'0 0.0
2015-Aug-30 01:32N 44°35' E 037°56'0 0.0
2015-Aug-30 00:32N 44°35' E 037°56'0 0.0
2015-Aug-29 23:32N 44°35' E 037°56'0 0.0
2015-Aug-29 22:32N 44°35' E 037°56'0 0.0
2015-Aug-29 21:32N 44°35' E 037°56'0 0.0
2015-Aug-29 20:32N 44°35' E 037°56'0 0.0
2015-Aug-29 19:32N 44°35' E 037°56'0 0.0
2015-Aug-29 18:32N 44°35' E 037°56'0 0.0
2015-Aug-29 17:32N 44°35' E 037°56'0 0.0
2015-Aug-29 16:32N 44°35' E 037°56'0 0.0
2015-Aug-29 15:32N 44°35' E 037°56'0 0.0
2015-Aug-29 14:32N 44°35' E 037°56'0 0.0
2015-Aug-29 13:32N 44°35' E 037°56'0 0.0
2015-Aug-29 12:32N 44°35' E 037°56'0 0.0
2015-Aug-29 11:32N 44°35' E 037°56'0 0.0
2015-Aug-29 10:32N 44°35' E 037°56'0 0.1
2015-Aug-29 09:32N 44°35' E 037°56'0 0.1
2015-Aug-29 08:32N 44°35' E 037°56'0 0.0
2015-Aug-29 07:32N 44°35' E 037°56'0 0.0
2015-Aug-29 06:32N 44°35' E 037°56'0 0.0
2015-Aug-29 05:32N 44°35' E 037°56'0 0.0
2015-Aug-29 04:32N 44°35' E 037°56'0 0.0
2015-Aug-29 03:32N 44°35' E 037°56'0 0.0
2015-Aug-29 02:32N 44°35' E 037°56'0 0.0
2015-Aug-29 01:32N 44°35' E 037°56'0 0.0
2015-Aug-29 00:32N 44°35' E 037°56'0 0.0
2015-Aug-28 23:32N 44°35' E 037°56'0 0.0
2015-Aug-28 22:32N 44°35' E 037°56'0 0.0
2015-Aug-28 21:32N 44°35' E 037°56'0 0.0
2015-Aug-28 20:32N 44°35' E 037°56'0 0.0
2015-Aug-28 19:32N 44°35' E 037°56'0 0.0
2015-Aug-28 18:32N 44°35' E 037°56'0 0.0
2015-Aug-28 17:32N 44°35' E 037°56'0 0.0
2015-Aug-28 16:32N 44°35' E 037°56'0 0.0
2015-Aug-28 15:32N 44°35' E 037°56'0 0.0
2015-Aug-28 14:32N 44°35' E 037°56'0 0.1
2015-Aug-28 13:32N 44°35' E 037°56'0 0.0
2015-Aug-28 12:32N 44°35' E 037°56'0 0.1
2015-Aug-28 11:32N 44°35' E 037°56'0 0.0
2015-Aug-28 10:32N 44°35' E 037°56'0 0.0
2015-Aug-28 09:32N 44°35' E 037°56'0 0.0
2015-Aug-28 08:32N 44°35' E 037°56'0 0.0
2015-Aug-28 07:32N 44°35' E 037°56'0 0.0
2015-Aug-28 06:32N 44°35' E 037°56'0 0.0
2015-Aug-26 20:17N 44°35' E 037°56'0 0.0
2015-Aug-26 19:32N 44°35' E 037°56'0 0.0
2015-Aug-26 18:32N 44°35' E 037°56'0 0.0
2015-Aug-26 17:32N 44°35' E 037°56'0 0.0
2015-Aug-26 16:32N 44°35' E 037°56'0 0.0
2015-Aug-26 15:32N 44°35' E 037°56'0 0.0
2015-Aug-26 14:32N 44°35' E 037°56'0 0.0
2015-Aug-26 13:32N 44°35' E 037°56'0 0.0
2015-Aug-26 12:33N 44°35' E 037°56'5 5.1
2015-Aug-26 11:33N 44°33' E 037°50'8 7.9
2015-Aug-26 10:33N 44°30' E 037°40'7 6.9
2015-Aug-26 09:33N 44°28' E 037°30'7 6.8
2015-Aug-26 08:32N 44°25' E 037°21'7 6.4
2015-Aug-26 07:29N 44°25' E 037°12'17 1.5
2015-Aug-25 20:17N 44°28' E 037°35'3 3.9
2015-Aug-25 19:33N 44°28' E 037°39'3 3.3
2015-Aug-25 18:33N 44°28' E 037°44'4 4.4
2015-Aug-25 17:33N 44°32' E 037°47'4 3.9
2015-Aug-25 16:33N 44°34' E 037°43'7 7.2
2015-Aug-25 15:33N 44°32' E 037°33'3 3.4
2015-Aug-25 14:33N 44°30' E 037°29'4 3.9
2015-Aug-25 13:33N 44°30' E 037°35'3 3.2
2015-Aug-25 12:33N 44°30' E 037°39'2 2.1
2015-Aug-25 11:33N 44°30' E 037°42'6 6.3
2015-Aug-25 10:33N 44°27' E 037°34'6 5.7
2015-Aug-25 09:33N 44°24' E 037°27'7 6.8
2015-Aug-25 08:33N 44°23' E 037°18'9 0.8
2015-Aug-24 21:27N 44°27' E 037°29'2 2.4
2015-Aug-24 20:33N 44°28' E 037°32'2 2.1
2015-Aug-24 19:25N 44°28' E 037°35'2 1.8
2015-Aug-24 18:32N 44°29' E 037°33'10 4.5
2015-Aug-24 16:19N 44°30' E 037°18'1 0.7
2015-Aug-24 15:33N 44°29' E 037°19'1 1.5
2015-Aug-24 14:33N 44°28' E 037°21'2 2.3
2015-Aug-24 13:33N 44°27' E 037°24'2 2.4
2015-Aug-24 12:33N 44°27' E 037°27'3 2.6
2015-Aug-24 11:33N 44°27' E 037°31'3 3.1
2015-Aug-24 10:33N 44°27' E 037°35'3 3.0
2015-Aug-24 09:33N 44°27' E 037°39'3 2.8
2015-Aug-24 08:33N 44°28' E 037°43'0 0.1
2015-Aug-24 07:33N 44°28' E 037°43'9 8.5
2015-Aug-24 06:33N 44°23' E 037°33'10 9.0
2015-Aug-24 05:26N 44°17' E 037°22'  

Dump ship's entire track history